createdAt,value
2023-03-03T00:01:21.210Z,1.05
2023-03-03T00:03:54.167Z,1.11
2023-03-03T00:09:41.542Z,1.14
2023-03-03T00:12:31.844Z,1.08
2023-03-03T00:15:19.860Z,1.13
2023-03-03T00:17:54.295Z,1.11
2023-03-03T00:20:37.640Z,1.13
2023-03-03T00:23:39.552Z,1.19
2023-03-03T00:26:26.496Z,1.28
2023-03-03T00:28:59.227Z,1.25
2023-03-03T00:31:36.329Z,1.23
2023-03-03T00:34:18.272Z,1.22
2023-03-03T00:36:56.446Z,1.24
2023-03-03T00:39:38.514Z,1.09
2023-03-03T00:42:20.320Z,0.95
2023-03-03T00:45:00.644Z,0.86
2023-03-03T00:47:42.712Z,0.65
2023-03-03T00:50:35.483Z,0.61
2023-03-03T00:53:14.568Z,0.50
2023-03-03T00:55:49.601Z,0.49
2023-03-03T00:58:24.712Z,0.43
2023-03-03T01:00:59.229Z,0.33
2023-03-03T01:03:41.949Z,0.41
2023-03-03T01:06:15.716Z,0.35
2023-03-03T01:08:48.320Z,0.45
2023-03-03T01:11:25.462Z,0.66
2023-03-03T01:13:57.541Z,0.56
2023-03-03T01:16:33.151Z,0.57
2023-03-03T01:19:05.069Z,0.59
2023-03-03T01:21:37.842Z,0.71
2023-03-03T01:24:09.870Z,0.75
2023-03-03T01:26:44.747Z,0.84
2023-03-03T01:29:16.626Z,0.88
2023-03-03T01:31:49.344Z,0.87
2023-03-03T01:34:22.531Z,0.92
2023-03-03T01:36:54.417Z,0.81
2023-03-03T01:39:27.218Z,0.81
2023-03-03T01:41:59.326Z,0.75
2023-03-03T01:44:32.207Z,0.75
2023-03-03T01:47:16.676Z,0.61
2023-03-03T01:49:56.780Z,0.55
2023-03-03T01:52:43.897Z,0.46
2023-03-03T01:58:36.451Z,0.35
2023-03-03T02:01:18.139Z,0.42
2023-03-03T02:04:13.265Z,0.32
2023-03-03T02:06:52.116Z,0.28
2023-03-03T02:09:42.641Z,0.19
2023-03-03T02:12:19.538Z,0.20
2023-03-03T02:14:52.296Z,0.24
2023-03-03T02:17:24.816Z,0.27
2023-03-03T02:20:12.217Z,0.29
2023-03-03T02:23:11.241Z,0.37
2023-03-03T02:26:16.831Z,0.32
2023-03-03T02:28:52.019Z,0.32
2023-03-03T02:34:21.401Z,0.52
2023-03-03T02:36:53.771Z,0.45
2023-03-03T02:39:30.913Z,0.57
2023-03-03T02:42:17.541Z,0.69
2023-03-03T02:44:55.369Z,0.68
2023-03-03T02:47:27.247Z,0.70
2023-03-03T02:50:00.049Z,0.81
2023-03-03T02:52:32.786Z,0.78
2023-03-03T02:55:06.359Z,0.77
2023-03-03T02:57:39.106Z,0.67
2023-03-03T03:00:12.115Z,0.59
2023-03-03T03:02:45.106Z,0.54
2023-03-03T03:05:18.210Z,0.57
2023-03-03T03:07:50.920Z,0.61
2023-03-03T03:10:23.882Z,0.62
2023-03-03T03:12:58.853Z,0.72
2023-03-03T03:15:31.296Z,0.68
2023-03-03T03:18:05.289Z,0.71
2023-03-03T03:20:40.041Z,0.76
2023-03-03T03:23:35.645Z,0.71
2023-03-03T03:26:08.702Z,0.61
2023-03-03T03:28:41.342Z,0.48
2023-03-03T03:31:18.944Z,0.38
2023-03-03T03:33:52.380Z,0.25
2023-03-03T03:36:27.043Z,0.28
2023-03-03T03:39:03.315Z,0.31
2023-03-03T03:41:36.065Z,0.25
2023-03-03T03:44:08.880Z,0.30
2023-03-03T03:46:41.498Z,0.28
2023-03-03T03:49:13.518Z,0.28
2023-03-03T03:51:47.329Z,0.35
2023-03-03T03:54:23.645Z,0.49
2023-03-03T03:56:57.274Z,0.54
2023-03-03T03:59:30.795Z,0.56
2023-03-03T04:02:03.853Z,0.69
2023-03-03T04:04:36.996Z,0.74
2023-03-03T04:10:05.229Z,0.80
2023-03-03T04:12:40.935Z,0.76
2023-03-03T04:15:17.311Z,0.77
2023-03-03T04:17:50.827Z,0.75
2023-03-03T04:20:23.431Z,0.65
2023-03-03T04:22:57.177Z,0.73
2023-03-03T04:25:30.970Z,0.72
2023-03-03T04:28:05.628Z,0.74
2023-03-03T04:30:40.957Z,0.76
2023-03-03T04:33:14.057Z,0.87
2023-03-03T04:35:47.237Z,0.92
2023-03-03T04:38:19.378Z,1.01
2023-03-03T04:40:53.884Z,1.14
2023-03-03T04:43:26.100Z,1.17
2023-03-03T04:45:59.769Z,1.26
2023-03-03T04:48:32.155Z,1.09
2023-03-03T04:51:07.971Z,1.06
2023-03-03T04:53:41.568Z,1.02
2023-03-03T04:56:16.188Z,0.93
2023-03-03T04:58:48.548Z,0.86
2023-03-03T05:01:22.583Z,0.96
2023-03-03T05:03:55.485Z,0.84
2023-03-03T05:06:49.656Z,0.70
2023-03-03T05:09:21.928Z,0.80
2023-03-03T05:14:44.842Z,0.84
2023-03-03T05:17:17.168Z,0.93
2023-03-03T05:19:49.514Z,1.06
2023-03-03T05:22:24.967Z,1.02
2023-03-03T05:24:57.770Z,1.17
2023-03-03T05:27:30.917Z,1.20
2023-03-03T05:30:03.058Z,1.18
2023-03-03T05:32:36.727Z,1.29
2023-03-03T05:35:09.032Z,1.24
2023-03-03T05:37:47.377Z,1.31
2023-03-03T05:40:19.786Z,1.33
2023-03-03T05:42:52.634Z,1.29
2023-03-03T05:45:24.823Z,1.25
2023-03-03T05:47:57.618Z,1.41
2023-03-03T05:50:30.142Z,1.38
2023-03-03T05:53:03.202Z,1.53
2023-03-03T05:55:35.127Z,1.42
2023-03-03T05:58:07.561Z,1.24
2023-03-03T06:00:40.154Z,1.16
2023-03-03T06:03:12.179Z,1.17
2023-03-03T06:05:45.042Z,1.28
2023-03-03T06:08:17.550Z,1.39
2023-03-03T06:10:49.480Z,1.40
2023-03-03T06:13:22.414Z,1.50
2023-03-03T06:15:56.326Z,1.61
2023-03-03T06:18:28.407Z,1.67
2023-03-03T06:21:00.299Z,1.85
2023-03-03T06:23:33.656Z,1.80
2023-03-03T06:26:06.105Z,1.79
2023-03-03T06:28:37.990Z,1.74
2023-03-03T06:31:10.749Z,1.97
2023-03-03T06:33:43.377Z,1.93
2023-03-03T06:36:16.607Z,2.05
2023-03-03T06:38:49.505Z,2.17
2023-03-03T06:41:22.042Z,2.29
2023-03-03T06:44:16.596Z,2.32
2023-03-03T06:46:48.546Z,2.39
2023-03-03T06:49:21.019Z,2.50
2023-03-03T06:51:53.649Z,2.56
2023-03-03T06:54:31.032Z,2.68
2023-03-03T06:57:18.920Z,2.70
2023-03-03T06:59:55.048Z,2.76
2023-03-03T07:02:28.357Z,2.72
2023-03-03T07:05:02.250Z,2.69
2023-03-03T07:07:34.123Z,2.80
2023-03-03T07:10:20.080Z,3.05
2023-03-03T07:12:52.684Z,3.16
2023-03-03T07:15:35.254Z,3.31
2023-03-03T07:18:41.429Z,3.14
2023-03-03T07:21:26.108Z,3.04
2023-03-03T07:24:01.053Z,3.05
2023-03-03T07:26:35.264Z,2.86
2023-03-03T07:29:27.768Z,3.04
2023-03-03T07:32:03.056Z,3.08
2023-03-03T07:34:46.964Z,3.24
2023-03-03T07:37:39.945Z,3.30
2023-03-03T07:40:38.484Z,3.45
2023-03-03T07:43:30.952Z,3.64
2023-03-03T07:46:30.434Z,3.67
2023-03-03T07:49:30.098Z,3.68
2023-03-03T07:52:19.891Z,3.62
2023-03-03T07:54:53.747Z,3.76
2023-03-03T07:57:40.474Z,3.75
2023-03-03T08:00:16.440Z,3.69
2023-03-03T08:02:59.768Z,3.80
2023-03-03T08:05:40.360Z,3.71
2023-03-03T08:08:34.943Z,3.66
2023-03-03T08:11:10.150Z,3.79
2023-03-03T08:13:43.860Z,3.70
2023-03-03T08:16:16.148Z,3.84
2023-03-03T08:18:53.979Z,3.95
2023-03-03T08:21:26.817Z,3.91
2023-03-03T08:23:59.060Z,3.84
2023-03-03T08:26:31.386Z,3.99
2023-03-03T08:29:03.634Z,3.91
2023-03-03T08:31:42.887Z,4.16
2023-03-03T08:34:15.174Z,4.15
2023-03-03T08:36:47.436Z,4.20
2023-03-03T08:39:20.039Z,4.18
2023-03-03T08:41:51.939Z,4.07
2023-03-03T08:44:24.584Z,4.36
2023-03-03T08:46:56.471Z,4.67
2023-03-03T08:49:28.692Z,4.55
2023-03-03T08:52:00.814Z,4.49
2023-03-03T08:54:33.965Z,4.79
2023-03-03T08:57:06.277Z,4.78
2023-03-03T08:59:39.396Z,4.89
2023-03-03T09:02:14.372Z,4.82
2023-03-03T09:04:46.371Z,4.75
2023-03-03T09:07:18.621Z,4.95
2023-03-03T09:09:50.914Z,4.90
2023-03-03T09:12:37.268Z,5.00
2023-03-03T09:15:25.559Z,5.07
2023-03-03T09:18:22.629Z,5.09
2023-03-03T09:20:57.919Z,5.14
2023-03-03T09:23:36.784Z,5.26
2023-03-03T09:26:15.512Z,5.21
2023-03-03T09:28:47.822Z,5.44
2023-03-03T09:31:40.633Z,5.53
2023-03-03T09:34:41.671Z,5.63
2023-03-03T09:37:38.095Z,5.56
2023-03-03T09:41:03.584Z,5.59
2023-03-03T09:44:02.466Z,5.53
2023-03-03T09:47:14.476Z,5.44
2023-03-03T09:50:19.758Z,5.50
2023-03-03T09:53:19.486Z,5.58
2023-03-03T09:55:59.464Z,5.65
2023-03-03T09:58:46.170Z,5.81
2023-03-03T10:01:24.850Z,5.93
2023-03-03T10:04:43.042Z,6.19
2023-03-03T10:07:47.142Z,6.32
2023-03-03T10:10:21.623Z,6.33
2023-03-03T10:13:20.671Z,6.36
2023-03-03T10:16:12.635Z,6.59
2023-03-03T10:19:01.215Z,6.69
2023-03-03T10:21:47.500Z,6.91
2023-03-03T10:25:05.266Z,7.04
2023-03-03T10:27:58.626Z,6.93
2023-03-03T10:31:05.589Z,7.08
2023-03-03T10:34:08.520Z,7.27
2023-03-03T10:36:56.056Z,8.10
2023-03-03T10:40:10.831Z,8.19
2023-03-03T10:43:10.433Z,8.33
2023-03-03T10:46:01.861Z,8.50
2023-03-03T10:49:22.502Z,8.21
2023-03-03T10:52:22.770Z,8.69
2023-03-03T10:55:16.472Z,8.63
2023-03-03T10:58:19.797Z,7.81
2023-03-03T11:01:27.659Z,7.96
2023-03-03T11:04:16.355Z,8.18
2023-03-03T11:06:59.904Z,8.60
2023-03-03T11:10:06.132Z,9.13
2023-03-03T11:13:13.860Z,9.28
2023-03-03T11:16:22.739Z,9.09
2023-03-03T11:19:28.326Z,9.03
2023-03-03T11:22:39.247Z,9.22
2023-03-03T11:25:26.348Z,8.83
2023-03-03T11:28:31.321Z,9.29
2023-03-03T11:31:31.952Z,9.22
2023-03-03T11:34:32.713Z,9.12
2023-03-03T11:37:10.551Z,8.73
2023-03-03T11:39:45.451Z,8.64
2023-03-03T11:42:52.949Z,8.80
2023-03-03T11:45:41.239Z,9.29
2023-03-03T11:48:36.327Z,9.81
2023-03-03T11:51:24.895Z,9.45
2023-03-03T11:55:06.889Z,9.79
2023-03-03T11:58:02.289Z,9.52
2023-03-03T12:00:42.118Z,9.78
2023-03-03T12:03:50.702Z,9.42
2023-03-03T12:06:50.733Z,9.75
2023-03-03T12:09:28.673Z,9.36
2023-03-03T12:12:16.194Z,8.83
2023-03-03T12:15:29.106Z,9.01
2023-03-03T12:18:50.980Z,9.16
2023-03-03T12:21:51.243Z,9.28
2023-03-03T12:25:05.514Z,9.48
2023-03-03T12:28:23.644Z,9.35
2023-03-03T12:31:50.319Z,9.35
2023-03-03T12:34:52.970Z,8.99
2023-03-03T12:37:51.495Z,9.43
2023-03-03T12:40:36.867Z,9.34
2023-03-03T12:44:07.595Z,9.32
2023-03-03T12:47:25.463Z,9.04
2023-03-03T12:50:48.552Z,9.19
2023-03-03T12:54:06.859Z,9.36
2023-03-03T12:57:25.114Z,10.27
2023-03-03T13:00:29.476Z,9.96
2023-03-03T13:03:32.124Z,9.56
2023-03-03T13:06:57.215Z,10.37
2023-03-03T13:09:44.084Z,9.86
2023-03-03T13:12:43.668Z,10.35
2023-03-03T13:15:54.852Z,10.21
2023-03-03T13:18:54.259Z,10.32
2023-03-03T13:22:00.334Z,10.12
2023-03-03T13:25:01.110Z,10.07
2023-03-03T13:27:42.100Z,10.30
2023-03-03T13:30:30.739Z,10.29
2023-03-03T13:33:28.500Z,10.55
2023-03-03T13:36:11.941Z,10.35
2023-03-03T13:38:57.116Z,10.19
2023-03-03T13:41:44.296Z,10.17
2023-03-03T13:44:44.183Z,10.28
2023-03-03T13:48:00.698Z,10.35
2023-03-03T13:51:25.151Z,10.33
2023-03-03T13:54:20.488Z,9.93
2023-03-03T13:57:26.167Z,9.51
2023-03-03T14:00:17.759Z,9.41
2023-03-03T14:03:41.128Z,9.42
2023-03-03T14:06:27.356Z,9.19
2023-03-03T14:09:06.510Z,9.20
2023-03-03T14:12:12.482Z,8.99
2023-03-03T14:15:20.830Z,9.02
2023-03-03T14:18:23.021Z,9.26
2023-03-03T14:21:09.222Z,9.12
2023-03-03T14:24:18.169Z,9.13
2023-03-03T14:26:57.587Z,9.10
2023-03-03T14:29:31.385Z,9.05
2023-03-03T14:32:39.486Z,8.99
2023-03-03T14:35:23.018Z,8.85
2023-03-03T14:38:13.130Z,8.92
2023-03-03T14:40:48.078Z,9.15
2023-03-03T14:43:42.876Z,9.06
2023-03-03T14:46:34.672Z,9.01
2023-03-03T14:49:37.653Z,8.84
2023-03-03T14:52:16.568Z,8.97
2023-03-03T14:54:52.574Z,8.96
2023-03-03T14:57:47.441Z,8.93
2023-03-03T15:00:19.851Z,9.16
2023-03-03T15:02:53.072Z,9.03
2023-03-03T15:05:36.827Z,9.05
2023-03-03T15:08:14.943Z,9.11
2023-03-03T15:10:47.016Z,9.19
2023-03-03T15:13:20.392Z,9.26
2023-03-03T15:16:05.721Z,9.13
2023-03-03T15:19:31.476Z,9.19
2023-03-03T15:22:21.732Z,9.07
2023-03-03T15:25:34.791Z,9.11
2023-03-03T15:32:25.212Z,9.06
2023-03-03T15:35:31.381Z,8.90
2023-03-03T15:38:30.704Z,8.77
2023-03-03T15:41:20.976Z,8.76
2023-03-03T15:44:19.801Z,8.81
2023-03-03T15:47:23.235Z,8.85
2023-03-03T15:50:29.406Z,8.73
2023-03-03T15:53:34.582Z,8.80
2023-03-03T15:56:35.994Z,8.80
2023-03-03T15:59:23.092Z,8.75
2023-03-03T16:02:15.717Z,8.75
2023-03-03T16:05:16.273Z,8.81
2023-03-03T16:08:21.864Z,9.00
2023-03-03T16:11:50.063Z,8.95
2023-03-03T16:15:27.085Z,8.65
2023-03-03T16:18:05.871Z,8.55
2023-03-03T16:21:06.542Z,8.51
2023-03-03T16:24:03.122Z,8.48
2023-03-03T16:27:37.565Z,8.44
2023-03-03T16:30:26.951Z,8.49
2023-03-03T16:33:32.083Z,8.40
2023-03-03T16:36:20.113Z,8.33
2023-03-03T16:39:24.889Z,8.35
2023-03-03T16:42:32.680Z,8.33
2023-03-03T16:45:37.763Z,8.34
2023-03-03T16:48:35.602Z,8.16
2023-03-03T16:51:32.129Z,8.07
2023-03-03T16:54:40.325Z,8.00
2023-03-03T16:57:56.276Z,7.75
2023-03-03T17:00:34.014Z,7.82
2023-03-03T17:03:31.479Z,7.71
2023-03-03T17:10:29.794Z,7.74
2023-03-03T17:13:41.638Z,7.67
2023-03-03T17:17:00.207Z,7.61
2023-03-03T17:19:44.380Z,7.64
2023-03-03T17:23:06.667Z,7.52
2023-03-03T17:25:50.299Z,7.45
2023-03-03T17:29:05.700Z,7.50
2023-03-03T17:32:12.131Z,7.50
2023-03-03T17:35:15.069Z,7.34
2023-03-03T17:38:06.951Z,7.25
2023-03-03T17:41:09.769Z,7.26
2023-03-03T17:44:13.472Z,7.28
2023-03-03T17:46:55.319Z,7.21
2023-03-03T17:49:43.735Z,7.12
2023-03-03T17:52:51.237Z,7.30
2023-03-03T17:56:26.375Z,7.26
2023-03-03T17:59:26.127Z,7.22
2023-03-03T18:02:44.845Z,7.17
2023-03-03T18:05:42.512Z,6.96
2023-03-03T18:08:45.153Z,6.91
2023-03-03T18:11:45.885Z,6.83
2023-03-03T18:14:49.854Z,6.83
2023-03-03T18:18:05.674Z,6.69
2023-03-03T18:21:08.041Z,6.55
2023-03-03T18:23:46.244Z,6.53
2023-03-03T18:26:41.801Z,6.46
2023-03-03T18:29:16.647Z,6.38
2023-03-03T18:31:52.871Z,6.21
2023-03-03T18:34:39.042Z,6.12
2023-03-03T18:37:35.272Z,6.09
2023-03-03T18:40:07.093Z,6.07
2023-03-03T18:42:42.752Z,6.00
2023-03-03T18:45:21.361Z,6.03
2023-03-03T18:48:11.372Z,5.95
2023-03-03T18:50:55.607Z,5.94
2023-03-03T18:53:35.781Z,5.99
2023-03-03T18:56:53.769Z,5.93
2023-03-03T18:59:34.881Z,5.93
2023-03-03T19:02:12.903Z,5.89
2023-03-03T19:05:08.095Z,5.92
2023-03-03T19:07:40.319Z,5.92
2023-03-03T19:10:21.540Z,5.92
2023-03-03T19:12:59.200Z,5.96
2023-03-03T19:15:31.202Z,5.95
2023-03-03T19:18:18.662Z,5.93
2023-03-03T19:21:12.902Z,5.95
2023-03-03T19:24:05.061Z,5.83
2023-03-03T19:26:58.316Z,5.77
2023-03-03T19:29:46.688Z,5.72
2023-03-03T19:33:00.580Z,5.54
2023-03-03T19:35:48.906Z,5.41
2023-03-03T19:39:09.546Z,5.15
2023-03-03T19:42:06.542Z,4.90
2023-03-03T19:45:12.079Z,4.86
2023-03-03T19:48:13.072Z,4.79
2023-03-03T19:54:44.036Z,4.64
2023-03-03T19:57:34.582Z,4.48
2023-03-03T20:00:26.015Z,4.47
2023-03-03T20:06:56.979Z,4.32
2023-03-03T20:10:01.177Z,4.30
2023-03-03T20:13:12.268Z,4.31
2023-03-03T20:15:49.864Z,4.28
2023-03-03T20:18:40.860Z,4.22
2023-03-03T20:21:38.448Z,4.17
2023-03-03T20:24:22.042Z,4.11
2023-03-03T20:27:08.060Z,4.05
2023-03-03T20:30:36.307Z,4.04
2023-03-03T20:33:48.606Z,3.92
2023-03-03T20:36:59.324Z,3.84
2023-03-03T20:40:11.269Z,3.84
2023-03-03T20:42:59.110Z,3.77
2023-03-03T20:45:53.850Z,3.70
2023-03-03T20:48:50.650Z,3.67
2023-03-03T20:51:58.422Z,3.65
2023-03-03T20:54:49.529Z,3.80
2023-03-03T20:57:47.524Z,3.76
2023-03-03T21:00:27.217Z,3.82
2023-03-03T21:03:26.087Z,3.76
2023-03-03T21:06:09.301Z,3.52
2023-03-03T21:08:55.138Z,3.55
2023-03-03T21:11:30.306Z,3.50
2023-03-03T21:14:30.564Z,3.46
2023-03-03T21:17:30.119Z,3.40
2023-03-03T21:20:26.625Z,3.32
2023-03-03T21:23:02.516Z,3.20
2023-03-03T21:28:34.968Z,3.14
2023-03-03T21:31:17.275Z,3.15
2023-03-03T21:33:56.345Z,2.98
2023-03-03T21:36:37.443Z,3.02
2023-03-03T21:39:29.047Z,2.84
2023-03-03T21:42:02.337Z,2.74
2023-03-03T21:44:53.187Z,2.66
2023-03-03T21:47:29.100Z,2.71
2023-03-03T21:50:02.446Z,2.61
2023-03-03T21:52:35.104Z,2.58
2023-03-03T21:55:09.387Z,2.75
2023-03-03T21:57:41.737Z,2.78
2023-03-03T22:00:14.872Z,2.75
2023-03-03T22:02:47.233Z,2.71
2023-03-03T22:05:19.902Z,2.69
2023-03-03T22:07:52.688Z,2.74
2023-03-03T22:10:24.556Z,2.67
2023-03-03T22:12:58.035Z,2.73
2023-03-03T22:15:33.164Z,2.76
2023-03-03T22:18:05.989Z,2.77
2023-03-03T22:20:38.338Z,2.78
2023-03-03T22:23:10.661Z,2.70
2023-03-03T22:25:42.646Z,2.69
2023-03-03T22:28:15.452Z,2.60
2023-03-03T22:30:47.410Z,2.58
2023-03-03T22:33:23.321Z,2.53
2023-03-03T22:35:55.651Z,2.60
2023-03-03T22:38:28.508Z,2.70
2023-03-03T22:41:02.035Z,2.68
2023-03-03T22:43:34.335Z,2.78
2023-03-03T22:46:07.113Z,2.83
2023-03-03T22:48:57.994Z,2.73
2023-03-03T22:51:30.514Z,2.73
2023-03-03T22:54:02.823Z,2.56
2023-03-03T22:56:35.267Z,2.50
2023-03-03T22:59:07.197Z,2.53
2023-03-03T23:01:39.889Z,2.69
2023-03-03T23:04:11.827Z,2.83
2023-03-03T23:06:48.643Z,2.83
2023-03-03T23:09:20.966Z,2.88
2023-03-03T23:11:54.025Z,2.80
2023-03-03T23:14:25.987Z,2.68
2023-03-03T23:16:58.697Z,2.55
2023-03-03T23:19:30.999Z,2.50
2023-03-03T23:22:03.527Z,2.46
2023-03-03T23:24:35.559Z,2.64
2023-03-03T23:30:05.066Z,2.90
2023-03-03T23:32:37.361Z,2.90
2023-03-03T23:35:09.956Z,2.94
2023-03-03T23:37:42.774Z,3.04
2023-03-03T23:40:17.023Z,2.89
2023-03-03T23:42:50.086Z,2.75
2023-03-03T23:45:22.404Z,2.66
2023-03-03T23:47:57.837Z,2.52
2023-03-03T23:50:29.816Z,2.56
2023-03-03T23:53:03.774Z,2.45
2023-03-03T23:55:36.674Z,2.37
2023-03-03T23:58:08.976Z,2.25
